sensor_id;sensor_type;location;lat;lon;timestamp;P1;durP1;ratioP1;P2;durP2;ratioP2
30062;SDS011;16889;67.864;24.990;2023-01-30T00:00:21;4.60;;;1.63;;
30062;SDS011;16889;67.864;24.990;2023-01-30T00:05:08;3.00;;;1.20;;
30062;SDS011;16889;67.864;24.990;2023-01-30T00:09:54;3.35;;;1.30;;
30062;SDS011;16889;67.864;24.990;2023-01-30T00:14:39;3.83;;;1.63;;
30062;SDS011;16889;67.864;24.990;2023-01-30T00:19:25;5.20;;;1.88;;
30062;SDS011;16889;67.864;24.990;2023-01-30T00:24:11;5.25;;;1.75;;
30062;SDS011;16889;67.864;24.990;2023-01-30T00:28:58;6.20;;;1.70;;
30062;SDS011;16889;67.864;24.990;2023-01-30T00:33:43;6.60;;;1.70;;
30062;SDS011;16889;67.864;24.990;2023-01-30T00:38:29;2.92;;;2.00;;
30062;SDS011;16889;67.864;24.990;2023-01-30T00:43:16;4.03;;;1.90;;
30062;SDS011;16889;67.864;24.990;2023-01-30T00:48:22;3.63;;;2.03;;
30062;SDS011;16889;67.864;24.990;2023-01-30T00:53:09;20.37;;;3.00;;
30062;SDS011;16889;67.864;24.990;2023-01-30T00:57:56;5.45;;;2.25;;
30062;SDS011;16889;67.864;24.990;2023-01-30T01:02:42;6.53;;;2.00;;
30062;SDS011;16889;67.864;24.990;2023-01-30T01:07:28;4.20;;;2.03;;
30062;SDS011;16889;67.864;24.990;2023-01-30T01:12:14;10.70;;;2.90;;
30062;SDS011;16889;67.864;24.990;2023-01-30T01:16:59;4.55;;;2.28;;
30062;SDS011;16889;67.864;24.990;2023-01-30T01:21:45;5.75;;;2.22;;
30062;SDS011;16889;67.864;24.990;2023-01-30T01:26:32;7.88;;;2.60;;
30062;SDS011;16889;67.864;24.990;2023-01-30T01:31:18;9.23;;;2.73;;
30062;SDS011;16889;67.864;24.990;2023-01-30T01:36:04;6.75;;;2.63;;
30062;SDS011;16889;67.864;24.990;2023-01-30T01:40:51;7.45;;;2.47;;
30062;SDS011;16889;67.864;24.990;2023-01-30T01:45:46;6.55;;;2.60;;
30062;SDS011;16889;67.864;24.990;2023-01-30T01:50:46;4.22;;;2.20;;
30062;SDS011;16889;67.864;24.990;2023-01-30T01:55:40;4.55;;;2.28;;
30062;SDS011;16889;67.864;24.990;2023-01-30T02:00:29;4.82;;;2.30;;
30062;SDS011;16889;67.864;24.990;2023-01-30T02:05:16;6.97;;;2.47;;
30062;SDS011;16889;67.864;24.990;2023-01-30T02:10:05;4.38;;;2.08;;
30062;SDS011;16889;67.864;24.990;2023-01-30T02:14:53;8.23;;;2.28;;
30062;SDS011;16889;67.864;24.990;2023-01-30T02:19:46;7.53;;;2.60;;
30062;SDS011;16889;67.864;24.990;2023-01-30T02:39:23;5.78;;;2.50;;
30062;SDS011;16889;67.864;24.990;2023-01-30T02:49:47;9.90;;;2.42;;
30062;SDS011;16889;67.864;24.990;2023-01-30T02:54:42;6.75;;;2.60;;
30062;SDS011;16889;67.864;24.990;2023-01-30T02:59:30;6.50;;;2.70;;
30062;SDS011;16889;67.864;24.990;2023-01-30T03:19:14;7.47;;;2.22;;
30062;SDS011;16889;67.864;24.990;2023-01-30T03:24:04;3.63;;;1.98;;
30062;SDS011;16889;67.864;24.990;2023-01-30T03:28:51;4.47;;;2.00;;
30062;SDS011;16889;67.864;24.990;2023-01-30T03:33:37;8.32;;;2.72;;
30062;SDS011;16889;67.864;24.990;2023-01-30T03:38:23;8.73;;;2.33;;
30062;SDS011;16889;67.864;24.990;2023-01-30T03:43:09;6.75;;;2.90;;
30062;SDS011;16889;67.864;24.990;2023-01-30T03:47:55;8.13;;;3.28;;
30062;SDS011;16889;67.864;24.990;2023-01-30T03:52:41;13.35;;;3.67;;
30062;SDS011;16889;67.864;24.990;2023-01-30T03:57:27;11.88;;;4.25;;
30062;SDS011;16889;67.864;24.990;2023-01-30T04:02:13;15.63;;;3.78;;
30062;SDS011;16889;67.864;24.990;2023-01-30T04:06:59;12.57;;;3.50;;
30062;SDS011;16889;67.864;24.990;2023-01-30T04:11:45;8.35;;;3.38;;
30062;SDS011;16889;67.864;24.990;2023-01-30T04:16:31;7.72;;;3.13;;
30062;SDS011;16889;67.864;24.990;2023-01-30T04:21:18;8.00;;;2.97;;
30062;SDS011;16889;67.864;24.990;2023-01-30T04:26:04;7.85;;;2.67;;
30062;SDS011;16889;67.864;24.990;2023-01-30T04:30:54;5.83;;;2.47;;
30062;SDS011;16889;67.864;24.990;2023-01-30T04:35:39;4.00;;;1.85;;
30062;SDS011;16889;67.864;24.990;2023-01-30T04:40:35;7.22;;;2.35;;
30062;SDS011;16889;67.864;24.990;2023-01-30T04:45:20;7.28;;;2.10;;
30062;SDS011;16889;67.864;24.990;2023-01-30T04:50:07;8.20;;;1.90;;
30062;SDS011;16889;67.864;24.990;2023-01-30T04:54:53;4.55;;;2.08;;
30062;SDS011;16889;67.864;24.990;2023-01-30T04:59:39;6.00;;;2.10;;
30062;SDS011;16889;67.864;24.990;2023-01-30T05:04:25;5.32;;;1.80;;
30062;SDS011;16889;67.864;24.990;2023-01-30T05:09:11;4.32;;;1.77;;
30062;SDS011;16889;67.864;24.990;2023-01-30T05:13:57;5.88;;;1.75;;
30062;SDS011;16889;67.864;24.990;2023-01-30T05:18:43;3.80;;;1.65;;
30062;SDS011;16889;67.864;24.990;2023-01-30T05:23:29;2.72;;;1.50;;
30062;SDS011;16889;67.864;24.990;2023-01-30T05:28:15;3.97;;;1.73;;
30062;SDS011;16889;67.864;24.990;2023-01-30T05:33:01;6.65;;;2.08;;
30062;SDS011;16889;67.864;24.990;2023-01-30T05:37:50;4.63;;;1.77;;
30062;SDS011;16889;67.864;24.990;2023-01-30T05:42:37;5.75;;;1.90;;
30062;SDS011;16889;67.864;24.990;2023-01-30T05:47:23;4.25;;;1.73;;
30062;SDS011;16889;67.864;24.990;2023-01-30T05:52:09;3.75;;;1.50;;
30062;SDS011;16889;67.864;24.990;2023-01-30T05:56:55;2.38;;;1.33;;
30062;SDS011;16889;67.864;24.990;2023-01-30T06:01:41;5.13;;;1.60;;
30062;SDS011;16889;67.864;24.990;2023-01-30T06:06:27;2.33;;;1.35;;
30062;SDS011;16889;67.864;24.990;2023-01-30T06:11:14;4.28;;;1.50;;
30062;SDS011;16889;67.864;24.990;2023-01-30T06:16:01;4.53;;;1.50;;
30062;SDS011;16889;67.864;24.990;2023-01-30T06:20:48;3.03;;;1.50;;
30062;SDS011;16889;67.864;24.990;2023-01-30T06:25:34;6.15;;;1.55;;
30062;SDS011;16889;67.864;24.990;2023-01-30T06:30:20;6.50;;;1.70;;
30062;SDS011;16889;67.864;24.990;2023-01-30T06:35:06;4.60;;;1.55;;
30062;SDS011;16889;67.864;24.990;2023-01-30T06:39:55;6.22;;;1.50;;
30062;SDS011;16889;67.864;24.990;2023-01-30T06:44:41;4.50;;;1.48;;
30062;SDS011;16889;67.864;24.990;2023-01-30T06:49:26;3.10;;;1.33;;
30062;SDS011;16889;67.864;24.990;2023-01-30T06:54:12;4.70;;;1.70;;
30062;SDS011;16889;67.864;24.990;2023-01-30T06:58:58;5.40;;;1.80;;
30062;SDS011;16889;67.864;24.990;2023-01-30T07:03:44;4.88;;;1.25;;
30062;SDS011;16889;67.864;24.990;2023-01-30T07:08:31;4.95;;;1.63;;
30062;SDS011;16889;67.864;24.990;2023-01-30T07:13:17;3.53;;;1.27;;
30062;SDS011;16889;67.864;24.990;2023-01-30T07:18:03;3.50;;;1.50;;
30062;SDS011;16889;67.864;24.990;2023-01-30T07:22:52;4.28;;;1.20;;
30062;SDS011;16889;67.864;24.990;2023-01-30T07:27:39;1.88;;;1.00;;
30062;SDS011;16889;67.864;24.990;2023-01-30T07:32:25;2.83;;;1.23;;
30062;SDS011;16889;67.864;24.990;2023-01-30T07:37:11;2.53;;;1.20;;
30062;SDS011;16889;67.864;24.990;2023-01-30T07:42:01;1.92;;;1.00;;
30062;SDS011;16889;67.864;24.990;2023-01-30T07:46:48;3.35;;;1.52;;
30062;SDS011;16889;67.864;24.990;2023-01-30T07:51:34;3.80;;;1.33;;
30062;SDS011;16889;67.864;24.990;2023-01-30T07:56:20;2.33;;;1.20;;
30062;SDS011;16889;67.864;24.990;2023-01-30T08:01:06;2.97;;;1.10;;
30062;SDS011;16889;67.864;24.990;2023-01-30T08:05:52;2.72;;;1.13;;
30062;SDS011;16889;67.864;24.990;2023-01-30T08:10:38;2.75;;;1.13;;
30062;SDS011;16889;67.864;24.990;2023-01-30T08:15:24;7.57;;;1.45;;
30062;SDS011;16889;67.864;24.990;2023-01-30T08:20:10;2.90;;;1.48;;
30062;SDS011;16889;67.864;24.990;2023-01-30T08:25:00;3.50;;;1.20;;
30062;SDS011;16889;67.864;24.990;2023-01-30T08:29:46;4.68;;;1.20;;
30062;SDS011;16889;67.864;24.990;2023-01-30T08:34:32;4.63;;;1.15;;
30062;SDS011;16889;67.864;24.990;2023-01-30T08:39:20;5.22;;;1.30;;
30062;SDS011;16889;67.864;24.990;2023-01-30T08:44:06;4.38;;;1.10;;
30062;SDS011;16889;67.864;24.990;2023-01-30T08:48:51;3.35;;;1.10;;
30062;SDS011;16889;67.864;24.990;2023-01-30T08:53:37;2.83;;;1.10;;
30062;SDS011;16889;67.864;24.990;2023-01-30T08:58:23;3.60;;;1.17;;
30062;SDS011;16889;67.864;24.990;2023-01-30T09:03:09;2.03;;;1.20;;
30062;SDS011;16889;67.864;24.990;2023-01-30T09:07:56;3.55;;;1.00;;
30062;SDS011;16889;67.864;24.990;2023-01-30T09:12:42;4.43;;;1.48;;
30062;SDS011;16889;67.864;24.990;2023-01-30T09:17:28;2.20;;;1.20;;
30062;SDS011;16889;67.864;24.990;2023-01-30T09:22:15;4.68;;;1.40;;
30062;SDS011;16889;67.864;24.990;2023-01-30T09:27:03;2.83;;;1.27;;
30062;SDS011;16889;67.864;24.990;2023-01-30T09:31:49;2.50;;;1.40;;
30062;SDS011;16889;67.864;24.990;2023-01-30T09:36:35;2.33;;;1.20;;
30062;SDS011;16889;67.864;24.990;2023-01-30T09:56:43;2.45;;;1.30;;
30062;SDS011;16889;67.864;24.990;2023-01-30T10:01:31;3.33;;;1.15;;
30062;SDS011;16889;67.864;24.990;2023-01-30T10:06:19;2.35;;;0.98;;
30062;SDS011;16889;67.864;24.990;2023-01-30T10:11:23;2.10;;;1.10;;
30062;SDS011;16889;67.864;24.990;2023-01-30T10:16:36;3.47;;;1.30;;
30062;SDS011;16889;67.864;24.990;2023-01-30T10:26:22;2.55;;;1.23;;
30062;SDS011;16889;67.864;24.990;2023-01-30T10:31:12;2.13;;;1.15;;
30062;SDS011;16889;67.864;24.990;2023-01-30T10:36:05;3.33;;;1.23;;
30062;SDS011;16889;67.864;24.990;2023-01-30T10:41:00;2.10;;;0.95;;
30062;SDS011;16889;67.864;24.990;2023-01-30T10:46:04;3.10;;;1.20;;
30062;SDS011;16889;67.864;24.990;2023-01-30T10:51:05;2.60;;;1.15;;
30062;SDS011;16889;67.864;24.990;2023-01-30T10:56:11;1.83;;;0.90;;
30062;SDS011;16889;67.864;24.990;2023-01-30T11:01:14;1.58;;;1.00;;
30062;SDS011;16889;67.864;24.990;2023-01-30T11:06:25;1.58;;;0.95;;
30062;SDS011;16889;67.864;24.990;2023-01-30T11:16:15;1.55;;;0.82;;
30062;SDS011;16889;67.864;24.990;2023-01-30T11:21:06;1.92;;;0.95;;
30062;SDS011;16889;67.864;24.990;2023-01-30T11:25:57;1.65;;;0.80;;
30062;SDS011;16889;67.864;24.990;2023-01-30T11:30:43;1.33;;;0.90;;
30062;SDS011;16889;67.864;24.990;2023-01-30T11:35:39;0.88;;;0.60;;
30062;SDS011;16889;67.864;24.990;2023-01-30T11:40:47;0.77;;;0.65;;
30062;SDS011;16889;67.864;24.990;2023-01-30T11:45:34;1.63;;;0.80;;
30062;SDS011;16889;67.864;24.990;2023-01-30T11:50:22;1.20;;;0.50;;
30062;SDS011;16889;67.864;24.990;2023-01-30T11:55:14;0.52;;;0.40;;
30062;SDS011;16889;67.864;24.990;2023-01-30T12:00:02;0.95;;;0.57;;
30062;SDS011;16889;67.864;24.990;2023-01-30T12:04:50;0.55;;;0.50;;
30062;SDS011;16889;67.864;24.990;2023-01-30T12:09:40;0.55;;;0.50;;
30062;SDS011;16889;67.864;24.990;2023-01-30T12:14:42;0.40;;;0.40;;
30062;SDS011;16889;67.864;24.990;2023-01-30T12:19:45;0.47;;;0.47;;
30062;SDS011;16889;67.864;24.990;2023-01-30T12:24:40;0.50;;;0.40;;
30062;SDS011;16889;67.864;24.990;2023-01-30T12:30:04;0.50;;;0.40;;
30062;SDS011;16889;67.864;24.990;2023-01-30T12:35:13;0.43;;;0.40;;
30062;SDS011;16889;67.864;24.990;2023-01-30T12:40:06;2.33;;;0.40;;
30062;SDS011;16889;67.864;24.990;2023-01-30T13:05:46;0.30;;;0.30;;
30062;SDS011;16889;67.864;24.990;2023-01-30T13:21:12;0.40;;;0.40;;
30062;SDS011;16889;67.864;24.990;2023-01-30T13:30:48;0.30;;;0.30;;
30062;SDS011;16889;67.864;24.990;2023-01-30T13:35:41;0.73;;;0.30;;
30062;SDS011;16889;67.864;24.990;2023-01-30T13:40:41;0.43;;;0.40;;
30062;SDS011;16889;67.864;24.990;2023-01-30T13:45:29;0.30;;;0.30;;
30062;SDS011;16889;67.864;24.990;2023-01-30T13:55:53;0.67;;;0.40;;
30062;SDS011;16889;67.864;24.990;2023-01-30T14:00:50;0.30;;;0.30;;
30062;SDS011;16889;67.864;24.990;2023-01-30T14:10:43;0.30;;;0.30;;
30062;SDS011;16889;67.864;24.990;2023-01-30T14:15:29;0.40;;;0.40;;
30062;SDS011;16889;67.864;24.990;2023-01-30T14:35:34;0.30;;;0.20;;
30062;SDS011;16889;67.864;24.990;2023-01-30T14:45:15;1.17;;;0.38;;
30062;SDS011;16889;67.864;24.990;2023-01-30T14:50:21;0.30;;;0.30;;
30062;SDS011;16889;67.864;24.990;2023-01-30T14:55:17;0.30;;;0.30;;
30062;SDS011;16889;67.864;24.990;2023-01-30T15:00:14;0.82;;;0.40;;
30062;SDS011;16889;67.864;24.990;2023-01-30T15:05:25;0.30;;;0.30;;
30062;SDS011;16889;67.864;24.990;2023-01-30T15:26:04;0.30;;;0.30;;
30062;SDS011;16889;67.864;24.990;2023-01-30T15:31:12;0.30;;;0.30;;
30062;SDS011;16889;67.864;24.990;2023-01-30T15:41:12;0.30;;;0.30;;
30062;SDS011;16889;67.864;24.990;2023-01-30T15:46:09;0.22;;;0.22;;
30062;SDS011;16889;67.864;24.990;2023-01-30T15:51:04;0.43;;;0.30;;
30062;SDS011;16889;67.864;24.990;2023-01-30T15:55:55;3.70;;;0.47;;
30062;SDS011;16889;67.864;24.990;2023-01-30T16:00:47;0.40;;;0.40;;
30062;SDS011;16889;67.864;24.990;2023-01-30T16:05:35;1.35;;;0.30;;
30062;SDS011;16889;67.864;24.990;2023-01-30T16:10:24;0.70;;;0.50;;
30062;SDS011;16889;67.864;24.990;2023-01-30T16:15:12;0.68;;;0.40;;
30062;SDS011;16889;67.864;24.990;2023-01-30T16:20:00;3.30;;;0.40;;
30062;SDS011;16889;67.864;24.990;2023-01-30T16:24:51;0.32;;;0.32;;
30062;SDS011;16889;67.864;24.990;2023-01-30T16:29:46;4.25;;;0.30;;
30062;SDS011;16889;67.864;24.990;2023-01-30T16:34:37;0.85;;;0.50;;
30062;SDS011;16889;67.864;24.990;2023-01-30T16:39:36;0.50;;;0.50;;
30062;SDS011;16889;67.864;24.990;2023-01-30T16:44:26;0.30;;;0.30;;
30062;SDS011;16889;67.864;24.990;2023-01-30T16:49:19;2.60;;;0.65;;
30062;SDS011;16889;67.864;24.990;2023-01-30T16:54:09;1.77;;;0.57;;
30062;SDS011;16889;67.864;24.990;2023-01-30T16:59:03;1.98;;;0.50;;
30062;SDS011;16889;67.864;24.990;2023-01-30T17:03:50;0.73;;;0.40;;
30062;SDS011;16889;67.864;24.990;2023-01-30T17:08:45;0.97;;;0.40;;
30062;SDS011;16889;67.864;24.990;2023-01-30T17:13:38;5.20;;;0.60;;
30062;SDS011;16889;67.864;24.990;2023-01-30T17:18:25;3.70;;;0.70;;
30062;SDS011;16889;67.864;24.990;2023-01-30T17:23:14;1.10;;;0.50;;
30062;SDS011;16889;67.864;24.990;2023-01-30T17:28:03;1.65;;;0.68;;
30062;SDS011;16889;67.864;24.990;2023-01-30T17:32:51;0.38;;;0.38;;
30062;SDS011;16889;67.864;24.990;2023-01-30T17:37:37;10.90;;;0.63;;
30062;SDS011;16889;67.864;24.990;2023-01-30T17:42:34;0.43;;;0.40;;
30062;SDS011;16889;67.864;24.990;2023-01-30T17:47:20;0.60;;;0.50;;
30062;SDS011;16889;67.864;24.990;2023-01-30T17:52:12;5.07;;;0.50;;
30062;SDS011;16889;67.864;24.990;2023-01-30T17:56:59;2.08;;;0.60;;
30062;SDS011;16889;67.864;24.990;2023-01-30T18:01:48;1.58;;;0.40;;
30062;SDS011;16889;67.864;24.990;2023-01-30T18:06:35;0.98;;;0.52;;
30062;SDS011;16889;67.864;24.990;2023-01-30T18:11:24;1.27;;;0.50;;
30062;SDS011;16889;67.864;24.990;2023-01-30T18:16:18;0.30;;;0.30;;
30062;SDS011;16889;67.864;24.990;2023-01-30T18:21:07;0.90;;;0.50;;
30062;SDS011;16889;67.864;24.990;2023-01-30T18:25:53;3.47;;;0.50;;
30062;SDS011;16889;67.864;24.990;2023-01-30T18:30:39;0.40;;;0.40;;
30062;SDS011;16889;67.864;24.990;2023-01-30T18:35:25;1.40;;;0.40;;
30062;SDS011;16889;67.864;24.990;2023-01-30T18:40:11;0.73;;;0.30;;
30062;SDS011;16889;67.864;24.990;2023-01-30T18:44:59;1.42;;;0.73;;
30062;SDS011;16889;67.864;24.990;2023-01-30T18:49:45;0.38;;;0.38;;
30062;SDS011;16889;67.864;24.990;2023-01-30T18:54:31;2.37;;;0.50;;
30062;SDS011;16889;67.864;24.990;2023-01-30T18:59:17;2.65;;;0.68;;
30062;SDS011;16889;67.864;24.990;2023-01-30T19:04:04;0.43;;;0.43;;
30062;SDS011;16889;67.864;24.990;2023-01-30T19:08:52;0.98;;;0.40;;
30062;SDS011;16889;67.864;24.990;2023-01-30T19:13:38;1.70;;;0.50;;
30062;SDS011;16889;67.864;24.990;2023-01-30T19:18:27;3.10;;;0.53;;
30062;SDS011;16889;67.864;24.990;2023-01-30T19:23:14;0.90;;;0.40;;
30062;SDS011;16889;67.864;24.990;2023-01-30T19:28:00;0.47;;;0.40;;
30062;SDS011;16889;67.864;24.990;2023-01-30T19:32:45;2.43;;;0.60;;
30062;SDS011;16889;67.864;24.990;2023-01-30T19:37:31;7.97;;;0.70;;
30062;SDS011;16889;67.864;24.990;2023-01-30T19:42:17;1.27;;;0.60;;
30062;SDS011;16889;67.864;24.990;2023-01-30T19:47:03;2.47;;;0.87;;
30062;SDS011;16889;67.864;24.990;2023-01-30T19:51:49;1.40;;;0.60;;
30062;SDS011;16889;67.864;24.990;2023-01-30T19:56:35;2.08;;;0.50;;
30062;SDS011;16889;67.864;24.990;2023-01-30T20:01:26;3.10;;;0.57;;
30062;SDS011;16889;67.864;24.990;2023-01-30T20:06:19;0.82;;;0.47;;
30062;SDS011;16889;67.864;24.990;2023-01-30T20:11:11;1.70;;;0.50;;
30062;SDS011;16889;67.864;24.990;2023-01-30T20:15:59;2.65;;;0.50;;
30062;SDS011;16889;67.864;24.990;2023-01-30T20:20:48;1.38;;;0.70;;
30062;SDS011;16889;67.864;24.990;2023-01-30T20:25:34;2.63;;;0.60;;
30062;SDS011;16889;67.864;24.990;2023-01-30T20:30:20;1.23;;;0.50;;
30062;SDS011;16889;67.864;24.990;2023-01-30T20:35:08;6.60;;;0.75;;
30062;SDS011;16889;67.864;24.990;2023-01-30T20:39:54;2.42;;;0.60;;
30062;SDS011;16889;67.864;24.990;2023-01-30T20:44:41;7.47;;;0.80;;
30062;SDS011;16889;67.864;24.990;2023-01-30T20:49:27;2.40;;;0.80;;
30062;SDS011;16889;67.864;24.990;2023-01-30T20:54:13;6.63;;;0.50;;
30062;SDS011;16889;67.864;24.990;2023-01-30T20:59:03;3.03;;;0.50;;
30062;SDS011;16889;67.864;24.990;2023-01-30T21:03:51;3.80;;;0.55;;
30062;SDS011;16889;67.864;24.990;2023-01-30T21:08:39;2.55;;;0.60;;
30062;SDS011;16889;67.864;24.990;2023-01-30T21:13:28;9.27;;;0.80;;
30062;SDS011;16889;67.864;24.990;2023-01-30T21:18:14;3.80;;;0.90;;
30062;SDS011;16889;67.864;24.990;2023-01-30T21:23:00;8.90;;;0.77;;
30062;SDS011;16889;67.864;24.990;2023-01-30T21:27:46;7.15;;;0.80;;
30062;SDS011;16889;67.864;24.990;2023-01-30T21:32:32;0.80;;;0.57;;
30062;SDS011;16889;67.864;24.990;2023-01-30T21:37:18;2.45;;;0.60;;
30062;SDS011;16889;67.864;24.990;2023-01-30T21:42:22;5.80;;;0.63;;
30062;SDS011;16889;67.864;24.990;2023-01-30T21:47:26;4.88;;;0.60;;
30062;SDS011;16889;67.864;24.990;2023-01-30T21:52:12;3.28;;;0.75;;
30062;SDS011;16889;67.864;24.990;2023-01-30T21:56:58;2.80;;;0.70;;
30062;SDS011;16889;67.864;24.990;2023-01-30T22:01:44;4.93;;;0.70;;
30062;SDS011;16889;67.864;24.990;2023-01-30T22:06:30;3.38;;;0.70;;
30062;SDS011;16889;67.864;24.990;2023-01-30T22:11:17;0.68;;;0.60;;
30062;SDS011;16889;67.864;24.990;2023-01-30T22:16:07;7.95;;;0.88;;
30062;SDS011;16889;67.864;24.990;2023-01-30T22:21:02;5.30;;;0.47;;
30062;SDS011;16889;67.864;24.990;2023-01-30T22:25:53;3.78;;;0.50;;
30062;SDS011;16889;67.864;24.990;2023-01-30T22:30:39;4.28;;;0.52;;
30062;SDS011;16889;67.864;24.990;2023-01-30T22:35:24;8.20;;;0.50;;
30062;SDS011;16889;67.864;24.990;2023-01-30T22:40:10;2.80;;;0.80;;
30062;SDS011;16889;67.864;24.990;2023-01-30T22:44:56;1.37;;;0.50;;
30062;SDS011;16889;67.864;24.990;2023-01-30T22:49:42;4.90;;;0.60;;
30062;SDS011;16889;67.864;24.990;2023-01-30T22:54:28;2.63;;;0.60;;
30062;SDS011;16889;67.864;24.990;2023-01-30T22:59:14;3.30;;;0.68;;
30062;SDS011;16889;67.864;24.990;2023-01-30T23:04:01;1.13;;;0.43;;
30062;SDS011;16889;67.864;24.990;2023-01-30T23:08:54;2.03;;;0.55;;
30062;SDS011;16889;67.864;24.990;2023-01-30T23:13:44;0.52;;;0.50;;
30062;SDS011;16889;67.864;24.990;2023-01-30T23:18:32;1.48;;;0.50;;
30062;SDS011;16889;67.864;24.990;2023-01-30T23:23:38;7.93;;;0.68;;
30062;SDS011;16889;67.864;24.990;2023-01-30T23:28:24;1.08;;;0.60;;
30062;SDS011;16889;67.864;24.990;2023-01-30T23:33:10;4.22;;;0.50;;
30062;SDS011;16889;67.864;24.990;2023-01-30T23:37:56;2.75;;;0.40;;
30062;SDS011;16889;67.864;24.990;2023-01-30T23:43:00;4.28;;;0.70;;
30062;SDS011;16889;67.864;24.990;2023-01-30T23:47:46;1.23;;;0.50;;
30062;SDS011;16889;67.864;24.990;2023-01-30T23:52:32;1.30;;;0.40;;
30062;SDS011;16889;67.864;24.990;2023-01-30T23:57:18;6.07;;;0.70;;
